sensor_id;sensor_type;location;lat;lon;timestamp;temperature;humidity
40253;DHT22;25972;51.854;4.534;2023-08-21T00:00:39;19.10;99.90
40253;DHT22;25972;51.854;4.534;2023-08-21T00:03:05;19.10;99.90
40253;DHT22;25972;51.854;4.534;2023-08-21T00:05:32;19.10;99.90
40253;DHT22;25972;51.854;4.534;2023-08-21T00:07:58;19.00;99.90
40253;DHT22;25972;51.854;4.534;2023-08-21T00:10:24;19.00;99.90
40253;DHT22;25972;51.854;4.534;2023-08-21T00:12:52;19.10;99.90
40253;DHT22;25972;51.854;4.534;2023-08-21T00:15:19;19.10;99.90
40253;DHT22;25972;51.854;4.534;2023-08-21T00:17:45;19.10;99.90
40253;DHT22;25972;51.854;4.534;2023-08-21T00:20:11;19.10;99.90
40253;DHT22;25972;51.854;4.534;2023-08-21T00:22:37;19.00;99.90
40253;DHT22;25972;51.854;4.534;2023-08-21T00:25:03;19.00;99.90
40253;DHT22;25972;51.854;4.534;2023-08-21T00:27:30;19.00;99.90
40253;DHT22;25972;51.854;4.534;2023-08-21T00:29:59;19.00;99.90
40253;DHT22;25972;51.854;4.534;2023-08-21T00:32:26;19.00;99.90
40253;DHT22;25972;51.854;4.534;2023-08-21T00:34:52;19.00;99.90
40253;DHT22;25972;51.854;4.534;2023-08-21T00:37:20;19.00;99.90
40253;DHT22;25972;51.854;4.534;2023-08-21T00:39:46;18.90;99.90
40253;DHT22;25972;51.854;4.534;2023-08-21T00:42:12;18.90;99.90
40253;DHT22;25972;51.854;4.534;2023-08-21T00:44:39;18.90;99.90
40253;DHT22;25972;51.854;4.534;2023-08-21T00:47:08;19.00;99.90
40253;DHT22;25972;51.854;4.534;2023-08-21T00:49:34;19.00;99.90
40253;DHT22;25972;51.854;4.534;2023-08-21T00:52:01;19.00;99.90
40253;DHT22;25972;51.854;4.534;2023-08-21T00:54:28;19.00;99.90
40253;DHT22;25972;51.854;4.534;2023-08-21T00:56:54;19.00;99.90
40253;DHT22;25972;51.854;4.534;2023-08-21T00:59:21;19.00;99.90
40253;DHT22;25972;51.854;4.534;2023-08-21T01:01:47;18.90;99.90
40253;DHT22;25972;51.854;4.534;2023-08-21T01:04:15;18.90;99.90
40253;DHT22;25972;51.854;4.534;2023-08-21T01:06:41;18.90;99.90
40253;DHT22;25972;51.854;4.534;2023-08-21T01:09:13;18.90;99.90
40253;DHT22;25972;51.854;4.534;2023-08-21T01:11:45;18.90;99.90
40253;DHT22;25972;51.854;4.534;2023-08-21T01:14:19;18.90;99.90
40253;DHT22;25972;51.854;4.534;2023-08-21T01:16:49;18.90;99.90
40253;DHT22;25972;51.854;4.534;2023-08-21T01:19:26;18.90;99.90
40253;DHT22;25972;51.854;4.534;2023-08-21T01:21:56;18.80;99.90
40253;DHT22;25972;51.854;4.534;2023-08-21T01:24:23;18.80;99.90
40253;DHT22;25972;51.854;4.534;2023-08-21T01:26:49;18.80;99.90
40253;DHT22;25972;51.854;4.534;2023-08-21T01:29:15;18.90;99.90
40253;DHT22;25972;51.854;4.534;2023-08-21T01:31:45;18.90;99.90
40253;DHT22;25972;51.854;4.534;2023-08-21T01:34:14;18.90;99.90
40253;DHT22;25972;51.854;4.534;2023-08-21T01:36:42;18.90;99.90
40253;DHT22;25972;51.854;4.534;2023-08-21T01:39:08;18.90;99.90
40253;DHT22;25972;51.854;4.534;2023-08-21T01:41:36;19.00;99.90
40253;DHT22;25972;51.854;4.534;2023-08-21T01:44:02;18.90;99.90
40253;DHT22;25972;51.854;4.534;2023-08-21T01:46:28;18.90;99.90
40253;DHT22;25972;51.854;4.534;2023-08-21T01:48:55;18.90;99.90
40253;DHT22;25972;51.854;4.534;2023-08-21T01:51:21;18.90;99.90
40253;DHT22;25972;51.854;4.534;2023-08-21T01:53:47;18.90;99.90
40253;DHT22;25972;51.854;4.534;2023-08-21T01:56:13;18.90;99.90
40253;DHT22;25972;51.854;4.534;2023-08-21T01:58:40;18.80;99.90
40253;DHT22;25972;51.854;4.534;2023-08-21T02:01:07;18.80;99.90
40253;DHT22;25972;51.854;4.534;2023-08-21T02:03:33;18.80;99.90
40253;DHT22;25972;51.854;4.534;2023-08-21T02:06:00;18.80;99.90
40253;DHT22;25972;51.854;4.534;2023-08-21T02:08:30;18.90;99.90
40253;DHT22;25972;51.854;4.534;2023-08-21T02:10:57;18.90;99.90
40253;DHT22;25972;51.854;4.534;2023-08-21T02:13:26;18.90;99.90
40253;DHT22;25972;51.854;4.534;2023-08-21T02:15:54;18.90;99.90
40253;DHT22;25972;51.854;4.534;2023-08-21T02:18:20;18.90;99.90
40253;DHT22;25972;51.854;4.534;2023-08-21T02:20:47;18.80;99.90
40253;DHT22;25972;51.854;4.534;2023-08-21T02:23:14;18.90;99.90
40253;DHT22;25972;51.854;4.534;2023-08-21T02:25:41;18.80;99.90
40253;DHT22;25972;51.854;4.534;2023-08-21T02:28:07;18.80;99.90
40253;DHT22;25972;51.854;4.534;2023-08-21T02:30:33;18.80;99.90
40253;DHT22;25972;51.854;4.534;2023-08-21T02:33:00;18.70;99.90
40253;DHT22;25972;51.854;4.534;2023-08-21T02:35:26;18.70;99.90
40253;DHT22;25972;51.854;4.534;2023-08-21T02:37:52;18.70;99.90
40253;DHT22;25972;51.854;4.534;2023-08-21T02:40:21;18.60;99.90
40253;DHT22;25972;51.854;4.534;2023-08-21T02:42:46;18.60;99.90
40253;DHT22;25972;51.854;4.534;2023-08-21T02:45:13;18.60;99.90
40253;DHT22;25972;51.854;4.534;2023-08-21T02:47:40;18.60;99.90
40253;DHT22;25972;51.854;4.534;2023-08-21T02:50:09;18.50;99.90
40253;DHT22;25972;51.854;4.534;2023-08-21T02:52:36;18.50;99.90
40253;DHT22;25972;51.854;4.534;2023-08-21T02:55:03;18.40;99.90
40253;DHT22;25972;51.854;4.534;2023-08-21T02:57:30;18.40;99.90
40253;DHT22;25972;51.854;4.534;2023-08-21T02:59:56;18.30;99.90
40253;DHT22;25972;51.854;4.534;2023-08-21T03:02:23;18.30;99.90
40253;DHT22;25972;51.854;4.534;2023-08-21T03:04:49;18.30;99.90
40253;DHT22;25972;51.854;4.534;2023-08-21T03:07:17;18.30;99.90
40253;DHT22;25972;51.854;4.534;2023-08-21T03:09:45;18.30;99.90
40253;DHT22;25972;51.854;4.534;2023-08-21T03:12:12;18.20;99.90
40253;DHT22;25972;51.854;4.534;2023-08-21T03:14:40;18.20;99.90
40253;DHT22;25972;51.854;4.534;2023-08-21T03:17:06;18.20;99.90
40253;DHT22;25972;51.854;4.534;2023-08-21T03:19:32;18.20;99.90
40253;DHT22;25972;51.854;4.534;2023-08-21T03:21:59;18.20;99.90
40253;DHT22;25972;51.854;4.534;2023-08-21T03:24:26;18.20;99.90
40253;DHT22;25972;51.854;4.534;2023-08-21T03:26:52;18.20;99.90
40253;DHT22;25972;51.854;4.534;2023-08-21T03:29:18;18.20;99.90
40253;DHT22;25972;51.854;4.534;2023-08-21T03:31:46;18.20;99.90
40253;DHT22;25972;51.854;4.534;2023-08-21T03:34:12;18.20;99.90
40253;DHT22;25972;51.854;4.534;2023-08-21T03:36:38;18.20;99.90
40253;DHT22;25972;51.854;4.534;2023-08-21T03:39:04;18.20;99.90
40253;DHT22;25972;51.854;4.534;2023-08-21T03:41:40;18.20;99.90
40253;DHT22;25972;51.854;4.534;2023-08-21T03:44:07;18.20;99.90
40253;DHT22;25972;51.854;4.534;2023-08-21T03:46:33;18.20;99.90
40253;DHT22;25972;51.854;4.534;2023-08-21T03:49:00;18.20;99.90
40253;DHT22;25972;51.854;4.534;2023-08-21T03:51:26;18.20;99.90
40253;DHT22;25972;51.854;4.534;2023-08-21T03:53:52;18.20;99.90
40253;DHT22;25972;51.854;4.534;2023-08-21T03:56:19;18.20;99.90
40253;DHT22;25972;51.854;4.534;2023-08-21T03:58:46;18.20;99.90
40253;DHT22;25972;51.854;4.534;2023-08-21T04:01:13;18.20;99.90
40253;DHT22;25972;51.854;4.534;2023-08-21T04:03:39;18.20;99.90
40253;DHT22;25972;51.854;4.534;2023-08-21T04:06:06;18.20;99.90
40253;DHT22;25972;51.854;4.534;2023-08-21T04:08:34;18.30;99.90
40253;DHT22;25972;51.854;4.534;2023-08-21T04:11:00;18.30;99.90
40253;DHT22;25972;51.854;4.534;2023-08-21T04:13:28;18.30;99.90
40253;DHT22;25972;51.854;4.534;2023-08-21T04:15:55;18.30;99.90
40253;DHT22;25972;51.854;4.534;2023-08-21T04:18:22;18.30;99.90
40253;DHT22;25972;51.854;4.534;2023-08-21T04:20:48;18.30;99.90
40253;DHT22;25972;51.854;4.534;2023-08-21T04:23:15;18.20;99.90
40253;DHT22;25972;51.854;4.534;2023-08-21T04:25:40;18.20;99.90
40253;DHT22;25972;51.854;4.534;2023-08-21T04:28:10;18.20;99.90
40253;DHT22;25972;51.854;4.534;2023-08-21T04:30:39;18.20;99.90
40253;DHT22;25972;51.854;4.534;2023-08-21T04:33:06;18.10;99.90
40253;DHT22;25972;51.854;4.534;2023-08-21T04:35:38;18.10;99.90
40253;DHT22;25972;51.854;4.534;2023-08-21T04:38:05;18.10;99.90
40253;DHT22;25972;51.854;4.534;2023-08-21T04:40:32;18.10;99.90
40253;DHT22;25972;51.854;4.534;2023-08-21T04:42:58;18.00;99.90
40253;DHT22;25972;51.854;4.534;2023-08-21T04:45:24;18.00;99.90
40253;DHT22;25972;51.854;4.534;2023-08-21T04:47:50;18.00;99.90
40253;DHT22;25972;51.854;4.534;2023-08-21T04:50:18;18.00;99.90
40253;DHT22;25972;51.854;4.534;2023-08-21T04:52:44;18.00;99.90
40253;DHT22;25972;51.854;4.534;2023-08-21T04:55:10;18.00;99.90
40253;DHT22;25972;51.854;4.534;2023-08-21T04:57:38;17.90;99.90
40253;DHT22;25972;51.854;4.534;2023-08-21T05:00:08;17.90;99.90
40253;DHT22;25972;51.854;4.534;2023-08-21T05:02:38;17.90;99.90
40253;DHT22;25972;51.854;4.534;2023-08-21T05:05:08;17.90;99.90
40253;DHT22;25972;51.854;4.534;2023-08-21T05:07:38;17.90;99.90
40253;DHT22;25972;51.854;4.534;2023-08-21T05:10:05;17.90;99.90
40253;DHT22;25972;51.854;4.534;2023-08-21T05:12:37;17.90;99.90
40253;DHT22;25972;51.854;4.534;2023-08-21T05:15:04;17.90;99.90
40253;DHT22;25972;51.854;4.534;2023-08-21T05:17:30;17.90;99.90
40253;DHT22;25972;51.854;4.534;2023-08-21T05:19:57;17.90;99.90
40253;DHT22;25972;51.854;4.534;2023-08-21T05:22:23;18.00;99.90
40253;DHT22;25972;51.854;4.534;2023-08-21T05:24:51;18.00;99.90
40253;DHT22;25972;51.854;4.534;2023-08-21T05:27:18;18.00;99.90
40253;DHT22;25972;51.854;4.534;2023-08-21T05:29:44;18.10;99.90
40253;DHT22;25972;51.854;4.534;2023-08-21T05:32:10;18.10;99.90
40253;DHT22;25972;51.854;4.534;2023-08-21T05:34:36;18.20;99.90
40253;DHT22;25972;51.854;4.534;2023-08-21T05:37:03;18.30;99.90
40253;DHT22;25972;51.854;4.534;2023-08-21T05:39:30;18.30;99.90
40253;DHT22;25972;51.854;4.534;2023-08-21T05:41:57;18.40;99.90
40253;DHT22;25972;51.854;4.534;2023-08-21T05:44:24;18.50;99.90
40253;DHT22;25972;51.854;4.534;2023-08-21T05:46:51;18.60;99.90
40253;DHT22;25972;51.854;4.534;2023-08-21T05:49:17;18.60;99.90
40253;DHT22;25972;51.854;4.534;2023-08-21T05:51:43;18.70;99.90
40253;DHT22;25972;51.854;4.534;2023-08-21T05:54:09;18.80;99.90
40253;DHT22;25972;51.854;4.534;2023-08-21T05:56:38;18.80;99.90
40253;DHT22;25972;51.854;4.534;2023-08-21T05:59:06;18.90;99.90
40253;DHT22;25972;51.854;4.534;2023-08-21T06:01:38;19.40;99.90
40253;DHT22;25972;51.854;4.534;2023-08-21T06:04:05;20.40;99.90
40253;DHT22;25972;51.854;4.534;2023-08-21T06:06:39;21.30;99.90
40253;DHT22;25972;51.854;4.534;2023-08-21T06:09:07;22.00;99.90
40253;DHT22;25972;51.854;4.534;2023-08-21T06:11:33;22.10;99.90
40253;DHT22;25972;51.854;4.534;2023-08-21T06:13:59;22.10;99.90
40253;DHT22;25972;51.854;4.534;2023-08-21T06:16:27;22.20;99.90
40253;DHT22;25972;51.854;4.534;2023-08-21T06:18:53;22.40;99.90
40253;DHT22;25972;51.854;4.534;2023-08-21T06:21:19;22.40;99.90
40253;DHT22;25972;51.854;4.534;2023-08-21T06:23:45;22.50;99.90
40253;DHT22;25972;51.854;4.534;2023-08-21T06:26:11;22.50;99.90
40253;DHT22;25972;51.854;4.534;2023-08-21T06:28:37;22.70;99.90
40253;DHT22;25972;51.854;4.534;2023-08-21T06:31:03;22.60;99.90
40253;DHT22;25972;51.854;4.534;2023-08-21T06:33:35;22.80;99.90
40253;DHT22;25972;51.854;4.534;2023-08-21T06:36:04;22.90;99.90
40253;DHT22;25972;51.854;4.534;2023-08-21T06:38:34;23.00;99.90
40253;DHT22;25972;51.854;4.534;2023-08-21T06:41:00;23.00;99.90
40253;DHT22;25972;51.854;4.534;2023-08-21T06:43:26;23.10;99.90
40253;DHT22;25972;51.854;4.534;2023-08-21T06:45:55;23.00;99.90
40253;DHT22;25972;51.854;4.534;2023-08-21T06:48:21;23.00;99.90
40253;DHT22;25972;51.854;4.534;2023-08-21T06:50:49;22.90;99.90
40253;DHT22;25972;51.854;4.534;2023-08-21T06:53:15;22.90;99.90
40253;DHT22;25972;51.854;4.534;2023-08-21T06:55:41;23.10;99.90
40253;DHT22;25972;51.854;4.534;2023-08-21T06:58:10;23.20;99.90
40253;DHT22;25972;51.854;4.534;2023-08-21T07:00:36;23.20;99.90
40253;DHT22;25972;51.854;4.534;2023-08-21T07:03:03;23.20;99.90
40253;DHT22;25972;51.854;4.534;2023-08-21T07:05:29;23.20;99.90
40253;DHT22;25972;51.854;4.534;2023-08-21T07:07:57;23.30;99.90
40253;DHT22;25972;51.854;4.534;2023-08-21T07:10:23;23.40;99.90
40253;DHT22;25972;51.854;4.534;2023-08-21T07:12:49;23.30;99.90
40253;DHT22;25972;51.854;4.534;2023-08-21T07:15:16;23.40;99.90
40253;DHT22;25972;51.854;4.534;2023-08-21T07:17:42;23.50;99.90
40253;DHT22;25972;51.854;4.534;2023-08-21T07:20:08;23.60;99.90
40253;DHT22;25972;51.854;4.534;2023-08-21T07:22:34;23.70;99.90
40253;DHT22;25972;51.854;4.534;2023-08-21T07:25:02;23.90;99.90
40253;DHT22;25972;51.854;4.534;2023-08-21T07:27:30;24.00;99.90
40253;DHT22;25972;51.854;4.534;2023-08-21T07:29:56;24.20;99.90
40253;DHT22;25972;51.854;4.534;2023-08-21T07:32:22;24.10;99.90
40253;DHT22;25972;51.854;4.534;2023-08-21T07:34:52;24.30;99.90
40253;DHT22;25972;51.854;4.534;2023-08-21T07:37:19;24.50;99.90
40253;DHT22;25972;51.854;4.534;2023-08-21T07:39:48;24.50;99.90
40253;DHT22;25972;51.854;4.534;2023-08-21T07:42:16;24.70;99.90
40253;DHT22;25972;51.854;4.534;2023-08-21T07:44:45;24.50;99.90
40253;DHT22;25972;51.854;4.534;2023-08-21T07:47:11;24.50;99.90
40253;DHT22;25972;51.854;4.534;2023-08-21T07:49:38;24.70;99.90
40253;DHT22;25972;51.854;4.534;2023-08-21T07:52:04;24.80;99.90
40253;DHT22;25972;51.854;4.534;2023-08-21T07:54:30;24.90;99.90
40253;DHT22;25972;51.854;4.534;2023-08-21T07:56:57;25.00;98.40
40253;DHT22;25972;51.854;4.534;2023-08-21T07:59:24;25.10;91.50
40253;DHT22;25972;51.854;4.534;2023-08-21T08:01:51;25.20;78.70
40253;DHT22;25972;51.854;4.534;2023-08-21T08:04:17;25.20;50.80
40253;DHT22;25972;51.854;4.534;2023-08-21T08:06:43;25.20;37.20
40253;DHT22;25972;51.854;4.534;2023-08-21T08:09:09;25.40;27.30
40253;DHT22;25972;51.854;4.534;2023-08-21T08:11:35;25.40;2.30
40253;DHT22;25972;51.854;4.534;2023-08-21T08:14:01;25.60;1.00
40253;DHT22;25972;51.854;4.534;2023-08-21T08:16:29;25.60;1.00
40253;DHT22;25972;51.854;4.534;2023-08-21T08:18:55;25.90;1.00
40253;DHT22;25972;51.854;4.534;2023-08-21T08:21:21;26.10;1.00
40253;DHT22;25972;51.854;4.534;2023-08-21T08:23:47;26.10;1.00
40253;DHT22;25972;51.854;4.534;2023-08-21T08:26:13;26.20;1.00
40253;DHT22;25972;51.854;4.534;2023-08-21T08:28:39;26.20;1.00
40253;DHT22;25972;51.854;4.534;2023-08-21T08:31:13;26.40;1.00
40253;DHT22;25972;51.854;4.534;2023-08-21T08:33:41;26.50;1.00
40253;DHT22;25972;51.854;4.534;2023-08-21T08:36:10;26.70;1.00
40253;DHT22;25972;51.854;4.534;2023-08-21T08:38:36;26.90;1.00
40253;DHT22;25972;51.854;4.534;2023-08-21T08:41:11;27.00;1.00
40253;DHT22;25972;51.854;4.534;2023-08-21T08:43:40;27.30;1.00
40253;DHT22;25972;51.854;4.534;2023-08-21T08:46:08;27.20;1.00
40253;DHT22;25972;51.854;4.534;2023-08-21T08:48:35;27.30;1.00
40253;DHT22;25972;51.854;4.534;2023-08-21T08:51:04;27.20;1.00
40253;DHT22;25972;51.854;4.534;2023-08-21T08:53:30;27.30;1.00
40253;DHT22;25972;51.854;4.534;2023-08-21T08:55:57;27.50;1.00
40253;DHT22;25972;51.854;4.534;2023-08-21T08:58:23;27.60;1.00
40253;DHT22;25972;51.854;4.534;2023-08-21T09:00:50;27.70;1.00
40253;DHT22;25972;51.854;4.534;2023-08-21T09:03:16;27.50;1.00
40253;DHT22;25972;51.854;4.534;2023-08-21T09:05:42;27.70;1.00
40253;DHT22;25972;51.854;4.534;2023-08-21T09:08:13;27.80;1.00
40253;DHT22;25972;51.854;4.534;2023-08-21T09:10:41;28.00;1.00
40253;DHT22;25972;51.854;4.534;2023-08-21T09:13:14;27.90;1.00
40253;DHT22;25972;51.854;4.534;2023-08-21T09:15:43;27.80;1.00
40253;DHT22;25972;51.854;4.534;2023-08-21T09:18:10;27.80;1.00
40253;DHT22;25972;51.854;4.534;2023-08-21T09:20:39;27.80;1.00
40253;DHT22;25972;51.854;4.534;2023-08-21T09:23:08;28.00;1.00
40253;DHT22;25972;51.854;4.534;2023-08-21T09:25:40;28.00;1.00
40253;DHT22;25972;51.854;4.534;2023-08-21T09:28:07;28.20;1.00
40253;DHT22;25972;51.854;4.534;2023-08-21T09:30:51;28.50;1.00
40253;DHT22;25972;51.854;4.534;2023-08-21T09:33:18;28.60;1.00
40253;DHT22;25972;51.854;4.534;2023-08-21T09:35:45;28.50;1.00
40253;DHT22;25972;51.854;4.534;2023-08-21T09:38:14;28.50;1.00
40253;DHT22;25972;51.854;4.534;2023-08-21T09:40:43;28.60;1.00
40253;DHT22;25972;51.854;4.534;2023-08-21T09:43:09;28.70;1.00
40253;DHT22;25972;51.854;4.534;2023-08-21T09:45:39;28.80;1.00
40253;DHT22;25972;51.854;4.534;2023-08-21T09:48:06;29.00;1.00
40253;DHT22;25972;51.854;4.534;2023-08-21T09:50:37;29.10;1.00
40253;DHT22;25972;51.854;4.534;2023-08-21T09:53:06;29.10;1.00
40253;DHT22;25972;51.854;4.534;2023-08-21T09:55:33;29.20;1.00
40253;DHT22;25972;51.854;4.534;2023-08-21T09:58:01;29.10;1.00
40253;DHT22;25972;51.854;4.534;2023-08-21T10:00:32;29.10;1.00
40253;DHT22;25972;51.854;4.534;2023-08-21T10:03:01;29.30;1.00
40253;DHT22;25972;51.854;4.534;2023-08-21T10:05:28;29.20;1.00
40253;DHT22;25972;51.854;4.534;2023-08-21T10:07:56;29.40;1.00
40253;DHT22;25972;51.854;4.534;2023-08-21T10:10:23;29.10;1.00
40253;DHT22;25972;51.854;4.534;2023-08-21T10:12:49;29.20;1.00
40253;DHT22;25972;51.854;4.534;2023-08-21T10:15:18;29.10;1.00
40253;DHT22;25972;51.854;4.534;2023-08-21T10:17:44;29.50;1.00
40253;DHT22;25972;51.854;4.534;2023-08-21T10:20:11;29.20;1.00
40253;DHT22;25972;51.854;4.534;2023-08-21T10:22:43;29.40;1.00
40253;DHT22;25972;51.854;4.534;2023-08-21T10:25:20;29.30;1.00
40253;DHT22;25972;51.854;4.534;2023-08-21T10:27:50;29.30;1.00
40253;DHT22;25972;51.854;4.534;2023-08-21T10:30:23;29.50;1.00
40253;DHT22;25972;51.854;4.534;2023-08-21T10:32:50;29.50;1.00
40253;DHT22;25972;51.854;4.534;2023-08-21T10:35:19;29.70;1.00
40253;DHT22;25972;51.854;4.534;2023-08-21T10:38:11;29.60;1.00
40253;DHT22;25972;51.854;4.534;2023-08-21T10:40:39;29.40;1.00
40253;DHT22;25972;51.854;4.534;2023-08-21T10:43:39;29.40;1.00
40253;DHT22;25972;51.854;4.534;2023-08-21T10:46:07;29.70;1.00
40253;DHT22;25972;51.854;4.534;2023-08-21T10:48:34;30.00;1.00
40253;DHT22;25972;51.854;4.534;2023-08-21T10:51:02;29.90;1.00
40253;DHT22;25972;51.854;4.534;2023-08-21T10:53:29;30.10;1.00
40253;DHT22;25972;51.854;4.534;2023-08-21T10:55:56;30.30;1.00
40253;DHT22;25972;51.854;4.534;2023-08-21T10:58:22;30.20;1.00
40253;DHT22;25972;51.854;4.534;2023-08-21T11:00:56;30.20;1.00
40253;DHT22;25972;51.854;4.534;2023-08-21T11:03:24;29.70;1.00
40253;DHT22;25972;51.854;4.534;2023-08-21T11:06:01;29.80;1.00
40253;DHT22;25972;51.854;4.534;2023-08-21T11:08:28;29.80;1.00
40253;DHT22;25972;51.854;4.534;2023-08-21T11:10:54;29.50;1.00
40253;DHT22;25972;51.854;4.534;2023-08-21T11:13:23;29.30;1.00
40253;DHT22;25972;51.854;4.534;2023-08-21T11:15:57;29.60;1.00
40253;DHT22;25972;51.854;4.534;2023-08-21T11:18:29;29.50;1.00
40253;DHT22;25972;51.854;4.534;2023-08-21T11:21:04;29.20;1.00
40253;DHT22;25972;51.854;4.534;2023-08-21T11:23:32;29.10;1.00
40253;DHT22;25972;51.854;4.534;2023-08-21T11:25:59;29.20;1.00
40253;DHT22;25972;51.854;4.534;2023-08-21T11:28:26;29.00;1.00
40253;DHT22;25972;51.854;4.534;2023-08-21T11:30:54;28.70;1.00
40253;DHT22;25972;51.854;4.534;2023-08-21T11:33:21;28.70;1.00
40253;DHT22;25972;51.854;4.534;2023-08-21T11:35:49;28.60;1.00
40253;DHT22;25972;51.854;4.534;2023-08-21T11:38:17;28.60;1.00
40253;DHT22;25972;51.854;4.534;2023-08-21T11:40:51;28.50;1.00
40253;DHT22;25972;51.854;4.534;2023-08-21T11:43:18;28.50;1.00
40253;DHT22;25972;51.854;4.534;2023-08-21T11:45:45;28.20;1.00
40253;DHT22;25972;51.854;4.534;2023-08-21T11:48:12;28.10;1.00
40253;DHT22;25972;51.854;4.534;2023-08-21T11:50:39;27.90;1.00
40253;DHT22;25972;51.854;4.534;2023-08-21T11:53:06;28.00;1.00
40253;DHT22;25972;51.854;4.534;2023-08-21T11:55:34;27.90;1.00
40253;DHT22;25972;51.854;4.534;2023-08-21T11:58:01;27.90;1.00
40253;DHT22;25972;51.854;4.534;2023-08-21T12:00:28;28.00;1.00
40253;DHT22;25972;51.854;4.534;2023-08-21T12:02:57;27.90;1.00
40253;DHT22;25972;51.854;4.534;2023-08-21T12:05:23;27.90;1.00
40253;DHT22;25972;51.854;4.534;2023-08-21T12:07:49;28.00;1.00
40253;DHT22;25972;51.854;4.534;2023-08-21T12:10:23;28.00;1.00
40253;DHT22;25972;51.854;4.534;2023-08-21T12:12:52;27.80;1.00
40253;DHT22;25972;51.854;4.534;2023-08-21T12:15:18;27.80;1.00
40253;DHT22;25972;51.854;4.534;2023-08-21T12:17:44;27.80;1.00
40253;DHT22;25972;51.854;4.534;2023-08-21T12:20:11;27.80;1.00
40253;DHT22;25972;51.854;4.534;2023-08-21T12:22:37;27.90;1.00
40253;DHT22;25972;51.854;4.534;2023-08-21T12:25:05;27.90;1.00
40253;DHT22;25972;51.854;4.534;2023-08-21T12:27:32;28.00;1.00
40253;DHT22;25972;51.854;4.534;2023-08-21T12:29:59;28.10;1.00
40253;DHT22;25972;51.854;4.534;2023-08-21T12:32:25;28.10;1.00
40253;DHT22;25972;51.854;4.534;2023-08-21T12:34:51;28.30;1.00
40253;DHT22;25972;51.854;4.534;2023-08-21T12:37:18;28.40;1.00
40253;DHT22;25972;51.854;4.534;2023-08-21T12:39:44;28.40;1.00
40253;DHT22;25972;51.854;4.534;2023-08-21T12:42:10;28.70;1.00
40253;DHT22;25972;51.854;4.534;2023-08-21T12:44:37;28.70;1.00
40253;DHT22;25972;51.854;4.534;2023-08-21T12:47:03;28.70;1.00
40253;DHT22;25972;51.854;4.534;2023-08-21T12:49:29;28.60;1.00
40253;DHT22;25972;51.854;4.534;2023-08-21T12:51:56;28.70;1.00
40253;DHT22;25972;51.854;4.534;2023-08-21T12:54:22;28.80;1.00
40253;DHT22;25972;51.854;4.534;2023-08-21T12:56:48;28.90;1.00
40253;DHT22;25972;51.854;4.534;2023-08-21T12:59:14;29.10;1.00
40253;DHT22;25972;51.854;4.534;2023-08-21T13:01:42;29.30;1.00
40253;DHT22;25972;51.854;4.534;2023-08-21T13:04:08;29.40;1.00
40253;DHT22;25972;51.854;4.534;2023-08-21T13:06:34;29.50;1.00
40253;DHT22;25972;51.854;4.534;2023-08-21T13:09:01;29.50;1.00
40253;DHT22;25972;51.854;4.534;2023-08-21T13:11:28;29.70;1.00
40253;DHT22;25972;51.854;4.534;2023-08-21T13:13:55;29.70;1.00
40253;DHT22;25972;51.854;4.534;2023-08-21T13:16:21;29.60;1.00
40253;DHT22;25972;51.854;4.534;2023-08-21T13:18:49;29.70;1.00
40253;DHT22;25972;51.854;4.534;2023-08-21T13:21:15;29.50;1.00
40253;DHT22;25972;51.854;4.534;2023-08-21T13:23:41;29.60;1.00
40253;DHT22;25972;51.854;4.534;2023-08-21T13:26:07;29.80;1.00
40253;DHT22;25972;51.854;4.534;2023-08-21T13:28:33;29.70;1.00
40253;DHT22;25972;51.854;4.534;2023-08-21T13:30:59;29.80;1.00
40253;DHT22;25972;51.854;4.534;2023-08-21T13:33:25;29.70;1.00
40253;DHT22;25972;51.854;4.534;2023-08-21T13:35:53;29.70;1.00
40253;DHT22;25972;51.854;4.534;2023-08-21T13:38:19;29.60;1.00
40253;DHT22;25972;51.854;4.534;2023-08-21T13:40:45;29.70;1.00
40253;DHT22;25972;51.854;4.534;2023-08-21T13:43:11;29.50;1.00
40253;DHT22;25972;51.854;4.534;2023-08-21T13:45:38;29.40;1.00
40253;DHT22;25972;51.854;4.534;2023-08-21T13:48:09;29.40;1.00
40253;DHT22;25972;51.854;4.534;2023-08-21T13:50:35;29.70;1.00
40253;DHT22;25972;51.854;4.534;2023-08-21T13:53:03;29.70;1.00
40253;DHT22;25972;51.854;4.534;2023-08-21T13:55:29;29.40;1.00
40253;DHT22;25972;51.854;4.534;2023-08-21T13:57:55;29.40;1.00
40253;DHT22;25972;51.854;4.534;2023-08-21T14:00:22;29.20;1.00
40253;DHT22;25972;51.854;4.534;2023-08-21T14:02:48;29.20;1.00
40253;DHT22;25972;51.854;4.534;2023-08-21T14:05:14;29.20;1.00
40253;DHT22;25972;51.854;4.534;2023-08-21T14:07:40;29.20;1.00
40253;DHT22;25972;51.854;4.534;2023-08-21T14:10:08;29.10;1.00
40253;DHT22;25972;51.854;4.534;2023-08-21T14:12:35;29.10;1.00
40253;DHT22;25972;51.854;4.534;2023-08-21T14:15:01;29.00;1.00
40253;DHT22;25972;51.854;4.534;2023-08-21T14:17:28;28.90;1.00
40253;DHT22;25972;51.854;4.534;2023-08-21T14:19:54;28.70;1.00
40253;DHT22;25972;51.854;4.534;2023-08-21T14:22:21;28.50;1.00
40253;DHT22;25972;51.854;4.534;2023-08-21T14:24:47;28.50;1.00
40253;DHT22;25972;51.854;4.534;2023-08-21T14:27:17;28.60;1.00
40253;DHT22;25972;51.854;4.534;2023-08-21T14:29:44;28.60;1.00
40253;DHT22;25972;51.854;4.534;2023-08-21T14:32:10;28.60;1.00
40253;DHT22;25972;51.854;4.534;2023-08-21T14:34:39;28.60;1.00
40253;DHT22;25972;51.854;4.534;2023-08-21T14:37:06;28.50;1.00
40253;DHT22;25972;51.854;4.534;2023-08-21T14:39:32;28.50;1.00
40253;DHT22;25972;51.854;4.534;2023-08-21T14:41:59;28.20;1.00
40253;DHT22;25972;51.854;4.534;2023-08-21T14:44:26;28.10;1.00
40253;DHT22;25972;51.854;4.534;2023-08-21T14:46:53;28.10;1.00
40253;DHT22;25972;51.854;4.534;2023-08-21T14:49:20;28.10;1.00
40253;DHT22;25972;51.854;4.534;2023-08-21T14:51:46;28.20;1.00
40253;DHT22;25972;51.854;4.534;2023-08-21T14:54:12;28.20;1.00
40253;DHT22;25972;51.854;4.534;2023-08-21T14:56:38;28.20;1.00
40253;DHT22;25972;51.854;4.534;2023-08-21T14:59:05;28.20;1.00
40253;DHT22;25972;51.854;4.534;2023-08-21T15:01:32;28.20;1.00
40253;DHT22;25972;51.854;4.534;2023-08-21T15:03:59;28.20;1.00
40253;DHT22;25972;51.854;4.534;2023-08-21T15:06:25;28.10;1.00
40253;DHT22;25972;51.854;4.534;2023-08-21T15:08:52;28.00;1.00
40253;DHT22;25972;51.854;4.534;2023-08-21T15:11:18;27.90;1.00
40253;DHT22;25972;51.854;4.534;2023-08-21T15:13:44;27.90;1.00
40253;DHT22;25972;51.854;4.534;2023-08-21T15:16:10;27.80;1.00
40253;DHT22;25972;51.854;4.534;2023-08-21T15:18:38;27.70;1.00
40253;DHT22;25972;51.854;4.534;2023-08-21T15:21:05;27.70;1.00
40253;DHT22;25972;51.854;4.534;2023-08-21T15:23:31;27.70;1.00
40253;DHT22;25972;51.854;4.534;2023-08-21T15:25:57;27.80;1.00
40253;DHT22;25972;51.854;4.534;2023-08-21T15:28:23;27.80;1.00
40253;DHT22;25972;51.854;4.534;2023-08-21T15:30:49;27.80;1.00
40253;DHT22;25972;51.854;4.534;2023-08-21T15:33:15;27.70;1.00
40253;DHT22;25972;51.854;4.534;2023-08-21T15:35:43;27.70;1.00
40253;DHT22;25972;51.854;4.534;2023-08-21T15:38:09;27.60;1.00